THY211 EDDH-EDDM
Flight info
| Callsign | THY211 |
|---|---|
| Flight time | 0h 52m |
| Altitude | 37000 |
| Route | AMLUHRV/33 AMLUH M852 DENIX/N0456F350 DCT ZUCKA DCT SODRO/N0465F310 T703 LULAR/N0467F300 T105 LANDU |
| Aircraft | CONC/H-SDFHIRWY/C |
Departure
| Time | 2026-04-30 18:40 |
|---|---|
| Airport | Hamburg Helmut Schmidt Airport (EDDH) |
Arrival
| Time | 2026-04-30 19:32 |
|---|---|
| Airport | Munich Airport (EDDM) |
| Time | Latitude | Longitude | Altitude | Speed | Heading |
|---|---|---|---|---|---|
| 2026-04-30 17:39 | 53.63373 | 10.00337 | 51 ft | 0 kts | 86° |
| 2026-04-30 18:10 | 53.63378 | 10.00217 | 51 ft | 4 kts | 115° |
| 2026-04-30 18:11 | 53.63398 | 10.00190 | 51 ft | 0 kts | 176° |
| 2026-04-30 18:16 | 53.63395 | 10.00191 | 51 ft | 2 kts | 175° |
| 2026-04-30 18:16 | 53.63321 | 10.00230 | 51 ft | 8 kts | 168° |
| 2026-04-30 18:17 | 53.63248 | 10.00241 | 51 ft | 13 kts | 177° |
| 2026-04-30 18:17 | 53.63149 | 10.00254 | 51 ft | 14 kts | 176° |
| 2026-04-30 18:17 | 53.62992 | 10.00181 | 51 ft | 0 kts | 212° |
| 2026-04-30 18:18 | 53.62991 | 10.00181 | 51 ft | 0 kts | 212° |
| 2026-04-30 18:18 | 53.62982 | 10.00170 | 51 ft | 4 kts | 213° |
| 2026-04-30 18:18 | 53.62950 | 10.00135 | 51 ft | 3 kts | 213° |
| 2026-04-30 18:19 | 53.62949 | 10.00134 | 51 ft | 0 kts | 213° |
| 2026-04-30 18:19 | 53.62946 | 10.00130 | 51 ft | 2 kts | 214° |
| 2026-04-30 18:20 | 53.62918 | 10.00101 | 51 ft | 5 kts | 213° |
| 2026-04-30 18:20 | 53.62912 | 10.00094 | 51 ft | 0 kts | 213° |
| 2026-04-30 18:20 | 53.62908 | 10.00089 | 51 ft | 3 kts | 213° |
| 2026-04-30 18:20 | 53.62876 | 10.00067 | 51 ft | 7 kts | 189° |
| 2026-04-30 18:21 | 53.62811 | 10.00100 | 51 ft | 12 kts | 155° |
| 2026-04-30 18:21 | 53.62719 | 10.00180 | 51 ft | 14 kts | 150° |
| 2026-04-30 18:21 | 53.62653 | 10.00239 | 51 ft | 5 kts | 153° |
| 2026-04-30 18:21 | 53.62643 | 10.00247 | 51 ft | 0 kts | 153° |
| 2026-04-30 18:24 | 53.62636 | 10.00253 | 51 ft | 3 kts | 154° |
| 2026-04-30 18:25 | 53.62628 | 10.00259 | 51 ft | 0 kts | 156° |
| 2026-04-30 18:30 | 53.62627 | 10.00260 | 51 ft | 2 kts | 157° |
| 2026-04-30 18:31 | 53.62600 | 10.00257 | 51 ft | 7 kts | 202° |
| 2026-04-30 18:31 | 53.62575 | 10.00217 | 51 ft | 0 kts | 240° |
| 2026-04-30 18:37 | 53.62567 | 10.00195 | 51 ft | 5 kts | 242° |
| 2026-04-30 18:37 | 53.62546 | 10.00120 | 51 ft | 10 kts | 247° |
| 2026-04-30 18:37 | 53.62564 | 10.00008 | 51 ft | 11 kts | 328° |
| 2026-04-30 18:37 | 53.62573 | 10.00000 | 51 ft | 0 kts | 331° |
| 2026-04-30 18:39 | 53.62575 | 9.99998 | 51 ft | 1 kts | 331° |
| 2026-04-30 18:39 | 53.62917 | 9.99700 | 51 ft | 121 kts | 333° |
| 2026-04-30 18:39 | 53.64044 | 9.98717 | 138 ft | 230 kts | 333° |
| 2026-04-30 18:40 | 53.65607 | 9.97400 | 1055 ft | 260 kts | 334° |
| 2026-04-30 18:40 | 53.67215 | 9.96032 | 2000 ft | 262 kts | 333° |
| 2026-04-30 18:40 | 53.68853 | 9.94640 | 2952 ft | 267 kts | 333° |
| 2026-04-30 18:40 | 53.70527 | 9.93217 | 3933 ft | 271 kts | 333° |
| 2026-04-30 18:41 | 53.72226 | 9.91810 | 4926 ft | 274 kts | 341° |
| 2026-04-30 18:41 | 53.74104 | 9.91514 | 5932 ft | 276 kts | 14° |
| 2026-04-30 18:41 | 53.75789 | 9.93006 | 6964 ft | 279 kts | 47° |
| 2026-04-30 18:41 | 53.76752 | 9.95845 | 8001 ft | 284 kts | 80° |
| 2026-04-30 18:42 | 53.76682 | 9.99134 | 9021 ft | 286 kts | 108° |
| 2026-04-30 18:42 | 53.74701 | 10.04956 | 10315 ft | 295 kts | 148° |
| 2026-04-30 18:42 | 53.72910 | 10.06668 | 10597 ft | 296 kts | 153° |
| 2026-04-30 18:45 | 53.44324 | 10.19135 | 23611 ft | 509 kts | 166° |
| 2026-04-30 18:45 | 53.40840 | 10.20610 | 24229 ft | 510 kts | 166° |
| 2026-04-30 18:45 | 53.37400 | 10.22065 | 24545 ft | 510 kts | 166° |
| 2026-04-30 18:46 | 53.33884 | 10.23532 | 25125 ft | 537 kts | 166° |
| 2026-04-30 18:46 | 53.30256 | 10.25024 | 26720 ft | 547 kts | 166° |
| 2026-04-30 18:46 | 53.26585 | 10.26522 | 29105 ft | 538 kts | 166° |
| 2026-04-30 18:46 | 53.22925 | 10.28018 | 31224 ft | 532 kts | 166° |
| 2026-04-30 18:47 | 53.19385 | 10.29471 | 32862 ft | 529 kts | 166° |
| 2026-04-30 18:47 | 53.15776 | 10.30957 | 34115 ft | 527 kts | 166° |
| 2026-04-30 18:47 | 53.12268 | 10.32400 | 34935 ft | 524 kts | 166° |
| 2026-04-30 18:47 | 53.08737 | 10.33846 | 35375 ft | 522 kts | 166° |
| 2026-04-30 18:48 | 53.05207 | 10.35282 | 35470 ft | 521 kts | 166° |
| 2026-04-30 18:48 | 52.98060 | 10.38182 | 35471 ft | 539 kts | 166° |
| 2026-04-30 18:49 | 52.90729 | 10.41162 | 35468 ft | 543 kts | 166° |
| 2026-04-30 18:49 | 52.83394 | 10.44123 | 35468 ft | 543 kts | 166° |
| 2026-04-30 18:50 | 52.76051 | 10.47077 | 35468 ft | 543 kts | 166° |
| 2026-04-30 18:50 | 52.68726 | 10.50022 | 35468 ft | 543 kts | 166° |
| 2026-04-30 18:51 | 52.61372 | 10.52959 | 35468 ft | 543 kts | 166° |
| 2026-04-30 18:51 | 52.54035 | 10.55885 | 35468 ft | 543 kts | 166° |
| 2026-04-30 18:52 | 52.46689 | 10.58802 | 35468 ft | 543 kts | 166° |
| 2026-04-30 18:52 | 52.39346 | 10.61708 | 35468 ft | 543 kts | 166° |
| 2026-04-30 18:53 | 52.32005 | 10.64604 | 35468 ft | 543 kts | 166° |
| 2026-04-30 18:53 | 52.24659 | 10.67491 | 35468 ft | 543 kts | 166° |
| 2026-04-30 18:54 | 52.17264 | 10.70387 | 35468 ft | 543 kts | 166° |
| 2026-04-30 18:54 | 52.09971 | 10.73236 | 35468 ft | 543 kts | 166° |
| 2026-04-30 18:55 | 52.02622 | 10.76093 | 35468 ft | 543 kts | 166° |
| 2026-04-30 18:55 | 51.91555 | 10.80383 | 35468 ft | 543 kts | 166° |
| 2026-04-30 18:56 | 51.80527 | 10.84631 | 35468 ft | 543 kts | 166° |
| 2026-04-30 18:57 | 51.69510 | 10.88918 | 35466 ft | 543 kts | 162° |
| 2026-04-30 18:57 | 51.62477 | 10.93333 | 35469 ft | 543 kts | 155° |
| 2026-04-30 18:58 | 51.52290 | 11.01310 | 35468 ft | 543 kts | 153° |
| 2026-04-30 18:59 | 51.42172 | 11.09497 | 35468 ft | 543 kts | 153° |
| 2026-04-30 19:00 | 51.28598 | 11.20119 | 35468 ft | 543 kts | 154° |
| 2026-04-30 19:01 | 51.15005 | 11.30633 | 35468 ft | 543 kts | 154° |
| 2026-04-30 19:02 | 51.04805 | 11.38504 | 35468 ft | 543 kts | 154° |
| 2026-04-30 19:03 | 50.91201 | 11.48924 | 35468 ft | 543 kts | 154° |
| 2026-04-30 19:03 | 50.84385 | 11.54117 | 35346 ft | 545 kts | 154° |
| 2026-04-30 19:04 | 50.77686 | 11.59205 | 33496 ft | 529 kts | 154° |
| 2026-04-30 19:04 | 50.71075 | 11.64216 | 32491 ft | 525 kts | 154° |
| 2026-04-30 19:05 | 50.64494 | 11.69184 | 32467 ft | 524 kts | 154° |
| 2026-04-30 19:06 | 50.51331 | 11.79076 | 32468 ft | 524 kts | 154° |
| 2026-04-30 19:06 | 50.41389 | 11.86249 | 32468 ft | 524 kts | 156° |
| 2026-04-30 19:07 | 50.34691 | 11.90763 | 32363 ft | 524 kts | 157° |
| 2026-04-30 19:07 | 50.32427 | 11.92268 | 32196 ft | 523 kts | 157° |
| 2026-04-30 19:08 | 50.25752 | 11.96708 | 31690 ft | 519 kts | 156° |
| 2026-04-30 19:08 | 50.19145 | 12.01163 | 31184 ft | 516 kts | 156° |
| 2026-04-30 19:08 | 50.15860 | 12.03389 | 30930 ft | 514 kts | 156° |
| 2026-04-30 19:09 | 50.09324 | 12.07805 | 30424 ft | 510 kts | 156° |
| 2026-04-30 19:09 | 50.06073 | 12.09976 | 30171 ft | 508 kts | 157° |
| 2026-04-30 19:09 | 50.02815 | 12.12130 | 29917 ft | 507 kts | 157° |
| 2026-04-30 19:10 | 49.96389 | 12.16345 | 29284 ft | 503 kts | 157° |
| 2026-04-30 19:10 | 49.89944 | 12.20598 | 28481 ft | 497 kts | 157° |
| 2026-04-30 19:11 | 49.86771 | 12.22697 | 28083 ft | 495 kts | 157° |
| 2026-04-30 19:11 | 49.80347 | 12.25968 | 27451 ft | 490 kts | 177° |
| 2026-04-30 19:11 | 49.76890 | 12.25999 | 27463 ft | 490 kts | 181° |
| 2026-04-30 19:12 | 49.73488 | 12.25972 | 27466 ft | 490 kts | 179° |
| 2026-04-30 19:12 | 49.70075 | 12.26031 | 27467 ft | 490 kts | 179° |
| 2026-04-30 19:12 | 49.66665 | 12.26126 | 27394 ft | 490 kts | 179° |
| 2026-04-30 19:13 | 49.59914 | 12.26359 | 25452 ft | 481 kts | 179° |
| 2026-04-30 19:13 | 49.53316 | 12.26613 | 23533 ft | 469 kts | 178° |
| 2026-04-30 19:13 | 49.50070 | 12.26742 | 22604 ft | 463 kts | 178° |
| 2026-04-30 19:14 | 49.46876 | 12.26869 | 21700 ft | 457 kts | 178° |
| 2026-04-30 19:14 | 49.43718 | 12.26996 | 20811 ft | 451 kts | 178° |
| 2026-04-30 19:14 | 49.40608 | 12.27122 | 19943 ft | 445 kts | 178° |
| 2026-04-30 19:14 | 49.37521 | 12.27247 | 19092 ft | 440 kts | 178° |
| 2026-04-30 19:15 | 49.34478 | 12.27367 | 18263 ft | 435 kts | 179° |
| 2026-04-30 19:15 | 49.28607 | 12.25669 | 17473 ft | 429 kts | 195° |
| 2026-04-30 19:15 | 49.25721 | 12.24507 | 17466 ft | 429 kts | 194° |
| 2026-04-30 19:16 | 49.22863 | 12.23411 | 17466 ft | 429 kts | 194° |
| 2026-04-30 19:16 | 49.19926 | 12.22309 | 17466 ft | 429 kts | 193° |
| 2026-04-30 19:16 | 49.14162 | 12.20177 | 17466 ft | 429 kts | 193° |
| 2026-04-30 19:17 | 49.11265 | 12.19112 | 17466 ft | 429 kts | 193° |
| 2026-04-30 19:17 | 49.05458 | 12.16985 | 17466 ft | 429 kts | 193° |
| 2026-04-30 19:17 | 49.02518 | 12.15910 | 17466 ft | 429 kts | 193° |
| 2026-04-30 19:18 | 48.97701 | 12.14153 | 16987 ft | 425 kts | 193° |
| 2026-04-30 19:18 | 48.93890 | 12.12764 | 15801 ft | 423 kts | 193° |
| 2026-04-30 19:18 | 48.91042 | 12.11727 | 15050 ft | 418 kts | 193° |
| 2026-04-30 19:19 | 48.88190 | 12.10689 | 14281 ft | 414 kts | 193° |
| 2026-04-30 19:19 | 48.85404 | 12.09676 | 13531 ft | 410 kts | 193° |
| 2026-04-30 19:19 | 48.79922 | 12.07684 | 12058 ft | 401 kts | 193° |
| 2026-04-30 19:20 | 48.77222 | 12.06705 | 11565 ft | 394 kts | 193° |
| 2026-04-30 19:20 | 48.74569 | 12.05742 | 11463 ft | 392 kts | 193° |
| 2026-04-30 19:20 | 48.69316 | 12.03710 | 11458 ft | 392 kts | 203° |
| 2026-04-30 19:21 | 48.67052 | 12.01466 | 11458 ft | 392 kts | 225° |
| 2026-04-30 19:21 | 48.63526 | 11.95769 | 11464 ft | 355 kts | 225° |
| 2026-04-30 19:22 | 48.59980 | 11.90571 | 11466 ft | 354 kts | 224° |
| 2026-04-30 19:22 | 48.54972 | 11.82425 | 11466 ft | 354 kts | 236° |
| 2026-04-30 19:23 | 48.51032 | 11.73011 | 11459 ft | 354 kts | 238° |
| 2026-04-30 19:24 | 48.48449 | 11.66696 | 11087 ft | 353 kts | 238° |
| 2026-04-30 19:24 | 48.47171 | 11.63566 | 10574 ft | 345 kts | 238° |
| 2026-04-30 19:24 | 48.44649 | 11.57390 | 8433 ft | 344 kts | 238° |
| 2026-04-30 19:25 | 48.42865 | 11.47639 | 6509 ft | 310 kts | 263° |
| 2026-04-30 19:26 | 48.41884 | 11.41538 | 5214 ft | 300 kts | 232° |
| 2026-04-30 19:26 | 48.38300 | 11.39348 | 4461 ft | 278 kts | 175° |
| 2026-04-30 19:26 | 48.36473 | 11.39773 | 4438 ft | 256 kts | 156° |
| 2026-04-30 19:27 | 48.34009 | 11.43001 | 4453 ft | 239 kts | 106° |
| 2026-04-30 19:27 | 48.34091 | 11.47828 | 4455 ft | 214 kts | 85° |
| 2026-04-30 19:28 | 48.34219 | 11.50007 | 4467 ft | 207 kts | 84° |
| 2026-04-30 19:28 | 48.34548 | 11.54294 | 4377 ft | 206 kts | 83° |
| 2026-04-30 19:29 | 48.34877 | 11.58568 | 3862 ft | 205 kts | 83° |
| 2026-04-30 19:29 | 48.35041 | 11.60694 | 3591 ft | 205 kts | 83° |
| 2026-04-30 19:30 | 48.35510 | 11.66792 | 2810 ft | 182 kts | 83° |
| 2026-04-30 19:30 | 48.35797 | 11.70532 | 2331 ft | 172 kts | 83° |
| 2026-04-30 19:31 | 48.36068 | 11.74058 | 1881 ft | 170 kts | 83° |
| 2026-04-30 19:31 | 48.36204 | 11.75819 | 1657 ft | 169 kts | 83° |
| 2026-04-30 19:31 | 48.36448 | 11.78934 | 1488 ft | 69 kts | 84° |
| 2026-04-30 19:32 | 48.36434 | 11.79326 | 1488 ft | 32 kts | 112° |
| 2026-04-30 19:32 | 48.36362 | 11.79570 | 1488 ft | 26 kts | 114° |
| 2026-04-30 19:32 | 48.36321 | 11.79711 | 1488 ft | 6 kts | 113° |
| 2026-04-30 19:32 | 48.36314 | 11.79734 | 1488 ft | 0 kts | 115° |
| 2026-04-30 19:33 | 48.36312 | 11.79740 | 1488 ft | 2 kts | 117° |
| 2026-04-30 19:33 | 48.36296 | 11.79764 | 1488 ft | 5 kts | 146° |
| 2026-04-30 19:33 | 48.36257 | 11.79760 | 1488 ft | 7 kts | 218° |
| 2026-04-30 19:33 | 48.36232 | 11.79678 | 1488 ft | 10 kts | 257° |
| 2026-04-30 19:34 | 48.36220 | 11.79560 | 1488 ft | 13 kts | 262° |
| 2026-04-30 19:34 | 48.36207 | 11.79418 | 1488 ft | 15 kts | 264° |
| 2026-04-30 19:34 | 48.36182 | 11.79078 | 1488 ft | 18 kts | 263° |
| 2026-04-30 19:35 | 48.36168 | 11.78890 | 1488 ft | 18 kts | 265° |
| 2026-04-30 19:35 | 48.36154 | 11.78696 | 1488 ft | 19 kts | 262° |
| 2026-04-30 19:35 | 48.36135 | 11.78533 | 1488 ft | 14 kts | 239° |
| 2026-04-30 19:35 | 48.36043 | 11.78469 | 1488 ft | 15 kts | 227° |
| 2026-04-30 19:36 | 48.36019 | 11.78349 | 1488 ft | 0 kts | 263° |
| 2026-04-30 19:37 | 48.36019 | 11.78347 | 1488 ft | 1 kts | 263° |
| 2026-04-30 19:38 | 48.36017 | 11.78320 | 1488 ft | 4 kts | 264° |
| 2026-04-30 19:38 | 48.36014 | 11.78265 | 1488 ft | 7 kts | 265° |
| 2026-04-30 19:38 | 48.36009 | 11.78193 | 1488 ft | 8 kts | 264° |
| 2026-04-30 19:38 | 48.36000 | 11.78092 | 1488 ft | 11 kts | 262° |
| 2026-04-30 19:39 | 48.35990 | 11.77965 | 1488 ft | 13 kts | 264° |
| 2026-04-30 19:39 | 48.35979 | 11.77816 | 1488 ft | 15 kts | 263° |
| 2026-04-30 19:39 | 48.35924 | 11.77691 | 1488 ft | 17 kts | 185° |
| 2026-04-30 19:39 | 48.35802 | 11.77706 | 1488 ft | 18 kts | 173° |
| 2026-04-30 19:40 | 48.35671 | 11.77729 | 1488 ft | 19 kts | 173° |
| 2026-04-30 19:40 | 48.35554 | 11.77748 | 1488 ft | 17 kts | 173° |
| 2026-04-30 19:40 | 48.35434 | 11.77769 | 1488 ft | 18 kts | 173° |
| 2026-04-30 19:40 | 48.35334 | 11.77786 | 1488 ft | 13 kts | 173° |
| 2026-04-30 19:41 | 48.35237 | 11.77803 | 1488 ft | 13 kts | 173° |
| 2026-04-30 19:41 | 48.35184 | 11.77814 | 1488 ft | 6 kts | 172° |
| 2026-04-30 19:41 | 48.35132 | 11.77821 | 1488 ft | 9 kts | 175° |
| 2026-04-30 19:41 | 48.35078 | 11.77828 | 1488 ft | 7 kts | 174° |
| 2026-04-30 19:42 | 48.35031 | 11.77844 | 1488 ft | 8 kts | 145° |
| 2026-04-30 19:42 | 48.35018 | 11.77909 | 1488 ft | 5 kts | 88° |
| 2026-04-30 19:42 | 48.35019 | 11.77940 | 1488 ft | 2 kts | 84° |
| 2026-04-30 19:42 | 48.35020 | 11.77946 | 1488 ft | 0 kts | 84° |